sensor_id;sensor_type;location;lat;lon;timestamp;P1;durP1;ratioP1;P2;durP2;ratioP2
80366;SDS011;70058;42.660;23.366;2023-05-17T00:01:42;31.13;;;21.73;;
80366;SDS011;70058;42.660;23.366;2023-05-17T00:04:08;31.40;;;21.58;;
80366;SDS011;70058;42.660;23.366;2023-05-17T00:06:34;34.15;;;22.45;;
80366;SDS011;70058;42.660;23.366;2023-05-17T00:09:00;29.77;;;21.90;;
80366;SDS011;70058;42.660;23.366;2023-05-17T00:11:26;36.15;;;22.60;;
80366;SDS011;70058;42.660;23.366;2023-05-17T00:13:52;32.67;;;23.17;;
80366;SDS011;70058;42.660;23.366;2023-05-17T00:16:17;34.53;;;21.83;;
80366;SDS011;70058;42.660;23.366;2023-05-17T00:18:43;34.03;;;22.88;;
80366;SDS011;70058;42.660;23.366;2023-05-17T00:21:08;35.65;;;23.10;;
80366;SDS011;70058;42.660;23.366;2023-05-17T00:23:34;35.05;;;23.65;;
80366;SDS011;70058;42.660;23.366;2023-05-17T00:26:00;34.35;;;21.83;;
80366;SDS011;70058;42.660;23.366;2023-05-17T00:28:25;32.88;;;21.23;;
80366;SDS011;70058;42.660;23.366;2023-05-17T00:30:51;35.22;;;21.33;;
80366;SDS011;70058;42.660;23.366;2023-05-17T00:33:17;32.08;;;22.27;;
80366;SDS011;70058;42.660;23.366;2023-05-17T00:35:43;34.83;;;22.27;;
80366;SDS011;70058;42.660;23.366;2023-05-17T00:38:08;32.90;;;22.25;;
80366;SDS011;70058;42.660;23.366;2023-05-17T00:40:34;37.55;;;22.58;;
80366;SDS011;70058;42.660;23.366;2023-05-17T00:43:00;37.35;;;22.05;;
80366;SDS011;70058;42.660;23.366;2023-05-17T00:45:25;34.42;;;22.27;;
80366;SDS011;70058;42.660;23.366;2023-05-17T00:47:51;35.78;;;22.90;;
80366;SDS011;70058;42.660;23.366;2023-05-17T00:50:16;39.67;;;24.10;;
80366;SDS011;70058;42.660;23.366;2023-05-17T00:52:42;38.33;;;23.55;;
80366;SDS011;70058;42.660;23.366;2023-05-17T00:55:08;40.63;;;26.40;;
80366;SDS011;70058;42.660;23.366;2023-05-17T00:57:34;39.50;;;23.90;;
80366;SDS011;70058;42.660;23.366;2023-05-17T01:00:00;36.75;;;24.13;;
80366;SDS011;70058;42.660;23.366;2023-05-17T01:02:27;40.65;;;24.48;;
80366;SDS011;70058;42.660;23.366;2023-05-17T01:04:52;37.90;;;23.88;;
80366;SDS011;70058;42.660;23.366;2023-05-17T01:07:18;38.50;;;24.38;;
80366;SDS011;70058;42.660;23.366;2023-05-17T01:09:43;39.45;;;24.65;;
80366;SDS011;70058;42.660;23.366;2023-05-17T01:15:18;39.25;;;23.55;;
80366;SDS011;70058;42.660;23.366;2023-05-17T01:20:39;37.80;;;24.33;;
80366;SDS011;70058;42.660;23.366;2023-05-17T01:28:59;40.10;;;24.52;;
80366;SDS011;70058;42.660;23.366;2023-05-17T01:31:26;38.92;;;24.70;;
80366;SDS011;70058;42.660;23.366;2023-05-17T01:33:52;39.83;;;24.85;;
80366;SDS011;70058;42.660;23.366;2023-05-17T01:36:18;40.08;;;24.35;;
80366;SDS011;70058;42.660;23.366;2023-05-17T01:38:44;35.33;;;22.77;;
80366;SDS011;70058;42.660;23.366;2023-05-17T01:41:14;35.53;;;23.98;;
80366;SDS011;70058;42.660;23.366;2023-05-17T01:43:55;34.35;;;23.35;;
80366;SDS011;70058;42.660;23.366;2023-05-17T01:46:47;32.78;;;20.85;;
80366;SDS011;70058;42.660;23.366;2023-05-17T01:54:46;33.80;;;22.73;;
80366;SDS011;70058;42.660;23.366;2023-05-17T01:57:29;35.03;;;22.70;;
80366;SDS011;70058;42.660;23.366;2023-05-17T01:59:59;34.20;;;22.80;;
80366;SDS011;70058;42.660;23.366;2023-05-17T02:02:28;40.03;;;23.85;;
80366;SDS011;70058;42.660;23.366;2023-05-17T02:04:54;35.58;;;24.58;;
80366;SDS011;70058;42.660;23.366;2023-05-17T02:07:20;38.40;;;22.58;;
80366;SDS011;70058;42.660;23.366;2023-05-17T02:09:46;40.85;;;22.70;;
80366;SDS011;70058;42.660;23.366;2023-05-17T02:12:11;37.47;;;22.52;;
80366;SDS011;70058;42.660;23.366;2023-05-17T02:14:37;35.33;;;22.70;;
80366;SDS011;70058;42.660;23.366;2023-05-17T02:17:03;36.42;;;22.40;;
80366;SDS011;70058;42.660;23.366;2023-05-17T02:19:30;32.78;;;21.55;;
80366;SDS011;70058;42.660;23.366;2023-05-17T02:21:56;34.67;;;21.83;;
80366;SDS011;70058;42.660;23.366;2023-05-17T02:24:21;37.55;;;21.40;;
80366;SDS011;70058;42.660;23.366;2023-05-17T02:26:47;30.30;;;20.65;;
80366;SDS011;70058;42.660;23.366;2023-05-17T02:29:13;35.80;;;21.25;;
80366;SDS011;70058;42.660;23.366;2023-05-17T02:31:39;33.97;;;20.73;;
80366;SDS011;70058;42.660;23.366;2023-05-17T02:34:04;40.28;;;20.80;;
80366;SDS011;70058;42.660;23.366;2023-05-17T02:36:30;35.25;;;20.63;;
80366;SDS011;70058;42.660;23.366;2023-05-17T02:38:56;32.30;;;19.77;;
80366;SDS011;70058;42.660;23.366;2023-05-17T02:41:22;30.77;;;20.30;;
80366;SDS011;70058;42.660;23.366;2023-05-17T02:43:48;32.00;;;20.35;;
80366;SDS011;70058;42.660;23.366;2023-05-17T02:46:14;34.03;;;20.60;;
80366;SDS011;70058;42.660;23.366;2023-05-17T02:48:39;38.58;;;20.20;;
80366;SDS011;70058;42.660;23.366;2023-05-17T02:51:05;28.88;;;19.98;;
80366;SDS011;70058;42.660;23.366;2023-05-17T02:53:31;35.80;;;20.42;;
80366;SDS011;70058;42.660;23.366;2023-05-17T02:55:56;30.65;;;19.88;;
80366;SDS011;70058;42.660;23.366;2023-05-17T02:58:22;30.08;;;20.48;;
80366;SDS011;70058;42.660;23.366;2023-05-17T03:00:49;35.20;;;20.30;;
80366;SDS011;70058;42.660;23.366;2023-05-17T03:03:15;29.83;;;17.60;;
80366;SDS011;70058;42.660;23.366;2023-05-17T03:05:40;36.90;;;18.15;;
80366;SDS011;70058;42.660;23.366;2023-05-17T03:08:06;28.90;;;17.40;;
80366;SDS011;70058;42.660;23.366;2023-05-17T03:10:32;31.35;;;15.93;;
80366;SDS011;70058;42.660;23.366;2023-05-17T03:12:58;31.65;;;13.13;;
80366;SDS011;70058;42.660;23.366;2023-05-17T03:15:23;34.15;;;13.05;;
80366;SDS011;70058;42.660;23.366;2023-05-17T03:17:53;26.35;;;14.63;;
80366;SDS011;70058;42.660;23.366;2023-05-17T03:20:20;28.48;;;12.90;;
80366;SDS011;70058;42.660;23.366;2023-05-17T03:22:46;29.25;;;12.38;;
80366;SDS011;70058;42.660;23.366;2023-05-17T03:25:12;25.70;;;12.02;;
80366;SDS011;70058;42.660;23.366;2023-05-17T03:27:38;22.05;;;11.98;;
80366;SDS011;70058;42.660;23.366;2023-05-17T03:30:04;25.38;;;11.70;;
80366;SDS011;70058;42.660;23.366;2023-05-17T03:32:30;25.95;;;11.00;;
80366;SDS011;70058;42.660;23.366;2023-05-17T03:34:56;24.67;;;11.88;;
80366;SDS011;70058;42.660;23.366;2023-05-17T03:37:21;22.27;;;11.15;;
80366;SDS011;70058;42.660;23.366;2023-05-17T03:39:47;36.67;;;12.55;;
80366;SDS011;70058;42.660;23.366;2023-05-17T03:42:13;26.63;;;12.57;;
80366;SDS011;70058;42.660;23.366;2023-05-17T03:44:39;25.80;;;11.77;;
80366;SDS011;70058;42.660;23.366;2023-05-17T03:47:05;38.95;;;23.55;;
80366;SDS011;70058;42.660;23.366;2023-05-17T03:49:30;27.77;;;17.45;;
80366;SDS011;70058;42.660;23.366;2023-05-17T03:51:56;30.63;;;15.60;;
80366;SDS011;70058;42.660;23.366;2023-05-17T03:54:22;21.80;;;12.00;;
80366;SDS011;70058;42.660;23.366;2023-05-17T03:56:48;25.70;;;13.02;;
80366;SDS011;70058;42.660;23.366;2023-05-17T03:59:14;24.08;;;11.93;;
80366;SDS011;70058;42.660;23.366;2023-05-17T04:01:40;25.17;;;12.55;;
80366;SDS011;70058;42.660;23.366;2023-05-17T04:04:07;22.50;;;12.27;;
80366;SDS011;70058;42.660;23.366;2023-05-17T04:06:32;21.77;;;11.88;;
80366;SDS011;70058;42.660;23.366;2023-05-17T04:08:58;23.45;;;13.02;;
80366;SDS011;70058;42.660;23.366;2023-05-17T04:11:25;19.52;;;8.57;;
80366;SDS011;70058;42.660;23.366;2023-05-17T04:13:52;22.67;;;13.23;;
80366;SDS011;70058;42.660;23.366;2023-05-17T04:16:19;17.75;;;9.95;;
80366;SDS011;70058;42.660;23.366;2023-05-17T04:18:45;27.15;;;14.43;;
80366;SDS011;70058;42.660;23.366;2023-05-17T04:21:11;26.40;;;13.30;;
80366;SDS011;70058;42.660;23.366;2023-05-17T04:23:37;22.52;;;13.05;;
80366;SDS011;70058;42.660;23.366;2023-05-17T04:26:04;24.85;;;12.82;;
80366;SDS011;70058;42.660;23.366;2023-05-17T04:28:30;24.63;;;14.40;;
80366;SDS011;70058;42.660;23.366;2023-05-17T04:31:05;20.83;;;12.05;;
80366;SDS011;70058;42.660;23.366;2023-05-17T04:33:34;23.88;;;14.43;;
80366;SDS011;70058;42.660;23.366;2023-05-17T04:36:02;30.75;;;15.68;;
80366;SDS011;70058;42.660;23.366;2023-05-17T04:38:29;26.20;;;15.50;;
80366;SDS011;70058;42.660;23.366;2023-05-17T04:41:02;26.83;;;16.38;;
80366;SDS011;70058;42.660;23.366;2023-05-17T04:43:28;26.67;;;16.05;;
80366;SDS011;70058;42.660;23.366;2023-05-17T04:45:58;27.30;;;16.13;;
80366;SDS011;70058;42.660;23.366;2023-05-17T04:48:25;29.65;;;16.45;;
80366;SDS011;70058;42.660;23.366;2023-05-17T04:50:54;24.35;;;15.32;;
80366;SDS011;70058;42.660;23.366;2023-05-17T04:53:20;30.30;;;16.40;;
80366;SDS011;70058;42.660;23.366;2023-05-17T04:55:45;26.48;;;15.23;;
80366;SDS011;70058;42.660;23.366;2023-05-17T04:58:13;21.70;;;13.93;;
80366;SDS011;70058;42.660;23.366;2023-05-17T05:00:38;25.17;;;15.20;;
80366;SDS011;70058;42.660;23.366;2023-05-17T05:03:04;25.23;;;14.77;;
80366;SDS011;70058;42.660;23.366;2023-05-17T05:05:36;24.48;;;14.95;;
80366;SDS011;70058;42.660;23.366;2023-05-17T05:08:11;27.48;;;15.35;;
80366;SDS011;70058;42.660;23.366;2023-05-17T05:10:36;27.10;;;16.30;;
80366;SDS011;70058;42.660;23.366;2023-05-17T05:13:03;28.17;;;15.77;;
80366;SDS011;70058;42.660;23.366;2023-05-17T05:15:41;28.30;;;12.90;;
80366;SDS011;70058;42.660;23.366;2023-05-17T05:18:17;28.92;;;14.95;;
80366;SDS011;70058;42.660;23.366;2023-05-17T05:20:47;28.27;;;14.23;;
80366;SDS011;70058;42.660;23.366;2023-05-17T05:23:13;25.35;;;16.02;;
80366;SDS011;70058;42.660;23.366;2023-05-17T05:25:40;24.55;;;15.52;;
80366;SDS011;70058;42.660;23.366;2023-05-17T05:28:08;24.15;;;13.60;;
80366;SDS011;70058;42.660;23.366;2023-05-17T05:30:33;22.60;;;9.95;;
80366;SDS011;70058;42.660;23.366;2023-05-17T05:32:59;23.73;;;13.15;;
80366;SDS011;70058;42.660;23.366;2023-05-17T05:35:25;29.60;;;15.55;;
80366;SDS011;70058;42.660;23.366;2023-05-17T05:37:57;30.80;;;14.02;;
80366;SDS011;70058;42.660;23.366;2023-05-17T05:40:24;24.05;;;14.18;;
80366;SDS011;70058;42.660;23.366;2023-05-17T05:42:50;29.85;;;13.38;;
80366;SDS011;70058;42.660;23.366;2023-05-17T05:45:18;17.25;;;10.95;;
80366;SDS011;70058;42.660;23.366;2023-05-17T05:47:47;31.40;;;14.02;;
80366;SDS011;70058;42.660;23.366;2023-05-17T05:50:12;17.33;;;9.38;;
80366;SDS011;70058;42.660;23.366;2023-05-17T05:52:39;25.77;;;14.68;;
80366;SDS011;70058;42.660;23.366;2023-05-17T05:55:05;24.13;;;14.27;;
80366;SDS011;70058;42.660;23.366;2023-05-17T05:57:31;28.58;;;14.02;;
80366;SDS011;70058;42.660;23.366;2023-05-17T05:59:56;20.73;;;12.30;;
80366;SDS011;70058;42.660;23.366;2023-05-17T06:02:23;24.73;;;12.32;;
80366;SDS011;70058;42.660;23.366;2023-05-17T06:04:50;22.08;;;12.30;;
80366;SDS011;70058;42.660;23.366;2023-05-17T06:12:26;25.33;;;12.50;;
80366;SDS011;70058;42.660;23.366;2023-05-17T06:14:52;17.17;;;9.93;;
80366;SDS011;70058;42.660;23.366;2023-05-17T06:17:18;13.95;;;9.05;;
80366;SDS011;70058;42.660;23.366;2023-05-17T06:19:45;20.08;;;10.07;;
80366;SDS011;70058;42.660;23.366;2023-05-17T06:22:13;18.70;;;10.15;;
80366;SDS011;70058;42.660;23.366;2023-05-17T06:24:39;18.20;;;9.57;;
80366;SDS011;70058;42.660;23.366;2023-05-17T06:27:04;16.00;;;9.13;;
80366;SDS011;70058;42.660;23.366;2023-05-17T06:29:31;19.17;;;9.45;;
80366;SDS011;70058;42.660;23.366;2023-05-17T06:31:56;17.42;;;9.18;;
80366;SDS011;70058;42.660;23.366;2023-05-17T06:34:24;19.08;;;9.07;;
80366;SDS011;70058;42.660;23.366;2023-05-17T06:36:50;21.33;;;10.32;;
80366;SDS011;70058;42.660;23.366;2023-05-17T06:39:16;16.45;;;9.05;;
80366;SDS011;70058;42.660;23.366;2023-05-17T06:41:42;14.43;;;7.25;;
80366;SDS011;70058;42.660;23.366;2023-05-17T06:44:08;20.23;;;9.52;;
80366;SDS011;70058;42.660;23.366;2023-05-17T06:46:34;16.60;;;8.80;;
80366;SDS011;70058;42.660;23.366;2023-05-17T06:49:00;21.23;;;9.48;;
80366;SDS011;70058;42.660;23.366;2023-05-17T06:51:26;17.42;;;8.82;;
80366;SDS011;70058;42.660;23.366;2023-05-17T06:53:52;17.70;;;9.55;;
80366;SDS011;70058;42.660;23.366;2023-05-17T06:56:21;11.45;;;7.03;;
80366;SDS011;70058;42.660;23.366;2023-05-17T06:58:47;14.07;;;7.72;;
80366;SDS011;70058;42.660;23.366;2023-05-17T07:01:13;15.98;;;8.82;;
80366;SDS011;70058;42.660;23.366;2023-05-17T07:03:39;17.30;;;7.22;;
80366;SDS011;70058;42.660;23.366;2023-05-17T07:06:05;17.35;;;8.77;;
80366;SDS011;70058;42.660;23.366;2023-05-17T07:08:34;20.17;;;9.48;;
80366;SDS011;70058;42.660;23.366;2023-05-17T07:11:00;17.13;;;8.70;;
80366;SDS011;70058;42.660;23.366;2023-05-17T07:13:26;18.00;;;8.95;;
80366;SDS011;70058;42.660;23.366;2023-05-17T07:15:53;18.27;;;9.32;;
80366;SDS011;70058;42.660;23.366;2023-05-17T07:18:18;21.77;;;10.38;;
80366;SDS011;70058;42.660;23.366;2023-05-17T07:20:44;29.35;;;16.15;;
80366;SDS011;70058;42.660;23.366;2023-05-17T07:23:10;21.35;;;12.23;;
80366;SDS011;70058;42.660;23.366;2023-05-17T07:25:37;18.48;;;9.38;;
80366;SDS011;70058;42.660;23.366;2023-05-17T07:28:04;18.00;;;9.00;;
80366;SDS011;70058;42.660;23.366;2023-05-17T07:30:30;17.40;;;8.85;;
80366;SDS011;70058;42.660;23.366;2023-05-17T07:32:56;19.80;;;9.52;;
80366;SDS011;70058;42.660;23.366;2023-05-17T07:35:21;18.05;;;8.95;;
80366;SDS011;70058;42.660;23.366;2023-05-17T07:37:47;16.77;;;9.55;;
80366;SDS011;70058;42.660;23.366;2023-05-17T07:40:13;22.60;;;10.57;;
80366;SDS011;70058;42.660;23.366;2023-05-17T07:42:38;17.00;;;8.25;;
80366;SDS011;70058;42.660;23.366;2023-05-17T07:45:04;21.77;;;9.35;;
80366;SDS011;70058;42.660;23.366;2023-05-17T07:47:31;20.42;;;10.75;;
80366;SDS011;70058;42.660;23.366;2023-05-17T07:49:56;22.38;;;11.40;;
80366;SDS011;70058;42.660;23.366;2023-05-17T07:52:22;23.80;;;10.70;;
80366;SDS011;70058;42.660;23.366;2023-05-17T07:54:51;19.25;;;10.70;;
80366;SDS011;70058;42.660;23.366;2023-05-17T07:57:17;20.90;;;10.18;;
80366;SDS011;70058;42.660;23.366;2023-05-17T07:59:44;19.17;;;10.43;;
80366;SDS011;70058;42.660;23.366;2023-05-17T08:02:10;17.52;;;9.50;;
80366;SDS011;70058;42.660;23.366;2023-05-17T08:04:36;16.48;;;9.00;;
80366;SDS011;70058;42.660;23.366;2023-05-17T08:07:02;18.70;;;8.90;;
80366;SDS011;70058;42.660;23.366;2023-05-17T08:09:29;18.30;;;10.02;;
80366;SDS011;70058;42.660;23.366;2023-05-17T08:11:54;17.63;;;9.07;;
80366;SDS011;70058;42.660;23.366;2023-05-17T08:14:22;22.23;;;9.25;;
80366;SDS011;70058;42.660;23.366;2023-05-17T08:16:49;20.05;;;9.50;;
80366;SDS011;70058;42.660;23.366;2023-05-17T08:19:16;20.38;;;9.80;;
80366;SDS011;70058;42.660;23.366;2023-05-17T08:21:42;16.65;;;9.02;;
80366;SDS011;70058;42.660;23.366;2023-05-17T08:24:10;13.48;;;8.25;;
80366;SDS011;70058;42.660;23.366;2023-05-17T08:26:39;19.67;;;9.38;;
80366;SDS011;70058;42.660;23.366;2023-05-17T08:29:05;19.40;;;11.45;;
80366;SDS011;70058;42.660;23.366;2023-05-17T08:31:34;20.13;;;10.32;;
80366;SDS011;70058;42.660;23.366;2023-05-17T08:33:59;20.85;;;10.57;;
80366;SDS011;70058;42.660;23.366;2023-05-17T08:36:25;19.50;;;11.07;;
80366;SDS011;70058;42.660;23.366;2023-05-17T08:38:52;20.58;;;11.15;;
80366;SDS011;70058;42.660;23.366;2023-05-17T08:41:19;18.08;;;10.10;;
80366;SDS011;70058;42.660;23.366;2023-05-17T08:43:45;18.88;;;9.85;;
80366;SDS011;70058;42.660;23.366;2023-05-17T08:46:13;22.08;;;9.88;;
80366;SDS011;70058;42.660;23.366;2023-05-17T08:48:41;17.88;;;9.95;;
80366;SDS011;70058;42.660;23.366;2023-05-17T08:51:07;14.50;;;8.35;;
80366;SDS011;70058;42.660;23.366;2023-05-17T08:53:42;21.90;;;9.52;;
80366;SDS011;70058;42.660;23.366;2023-05-17T08:56:11;24.27;;;9.90;;
80366;SDS011;70058;42.660;23.366;2023-05-17T08:58:40;22.65;;;10.05;;
80366;SDS011;70058;42.660;23.366;2023-05-17T09:01:07;20.75;;;10.65;;
80366;SDS011;70058;42.660;23.366;2023-05-17T09:03:34;23.42;;;10.57;;
80366;SDS011;70058;42.660;23.366;2023-05-17T09:06:04;23.58;;;10.25;;
80366;SDS011;70058;42.660;23.366;2023-05-17T09:08:30;21.15;;;10.27;;
80366;SDS011;70058;42.660;23.366;2023-05-17T09:10:57;26.15;;;10.82;;
80366;SDS011;70058;42.660;23.366;2023-05-17T09:13:24;21.73;;;9.20;;
80366;SDS011;70058;42.660;23.366;2023-05-17T09:15:50;17.92;;;9.18;;
80366;SDS011;70058;42.660;23.366;2023-05-17T09:18:18;20.98;;;10.65;;
80366;SDS011;70058;42.660;23.366;2023-05-17T09:20:48;20.20;;;11.00;;
80366;SDS011;70058;42.660;23.366;2023-05-17T09:23:19;23.92;;;10.23;;
80366;SDS011;70058;42.660;23.366;2023-05-17T09:25:46;20.13;;;10.50;;
80366;SDS011;70058;42.660;23.366;2023-05-17T09:28:12;23.20;;;9.85;;
80366;SDS011;70058;42.660;23.366;2023-05-17T09:30:38;24.33;;;9.40;;
80366;SDS011;70058;42.660;23.366;2023-05-17T09:33:06;22.38;;;9.32;;
80366;SDS011;70058;42.660;23.366;2023-05-17T09:35:34;22.10;;;10.35;;
80366;SDS011;70058;42.660;23.366;2023-05-17T09:38:04;21.63;;;10.40;;
80366;SDS011;70058;42.660;23.366;2023-05-17T09:40:38;21.35;;;11.13;;
80366;SDS011;70058;42.660;23.366;2023-05-17T09:43:05;20.77;;;9.70;;
80366;SDS011;70058;42.660;23.366;2023-05-17T09:45:32;18.98;;;10.85;;
80366;SDS011;70058;42.660;23.366;2023-05-17T09:50:51;17.92;;;6.53;;
80366;SDS011;70058;42.660;23.366;2023-05-17T09:55:59;16.15;;;7.15;;
80366;SDS011;70058;42.660;23.366;2023-05-17T09:58:27;22.58;;;8.98;;
80366;SDS011;70058;42.660;23.366;2023-05-17T10:01:00;13.73;;;7.50;;
80366;SDS011;70058;42.660;23.366;2023-05-17T10:03:32;15.20;;;6.90;;
80366;SDS011;70058;42.660;23.366;2023-05-17T10:06:02;18.33;;;7.95;;
80366;SDS011;70058;42.660;23.366;2023-05-17T10:08:31;22.48;;;8.75;;
80366;SDS011;70058;42.660;23.366;2023-05-17T10:11:05;24.15;;;9.45;;
80366;SDS011;70058;42.660;23.366;2023-05-17T10:13:43;20.30;;;9.05;;
80366;SDS011;70058;42.660;23.366;2023-05-17T10:16:13;21.10;;;8.65;;
80366;SDS011;70058;42.660;23.366;2023-05-17T10:18:41;18.27;;;7.47;;
80366;SDS011;70058;42.660;23.366;2023-05-17T10:21:08;29.23;;;7.30;;
80366;SDS011;70058;42.660;23.366;2023-05-17T10:23:35;16.85;;;6.95;;
80366;SDS011;70058;42.660;23.366;2023-05-17T10:26:04;16.95;;;7.25;;
80366;SDS011;70058;42.660;23.366;2023-05-17T10:28:31;11.48;;;4.85;;
80366;SDS011;70058;42.660;23.366;2023-05-17T10:30:58;19.83;;;7.55;;
80366;SDS011;70058;42.660;23.366;2023-05-17T10:33:25;15.85;;;5.75;;
80366;SDS011;70058;42.660;23.366;2023-05-17T10:35:52;19.77;;;7.82;;
80366;SDS011;70058;42.660;23.366;2023-05-17T10:38:20;19.98;;;5.95;;
80366;SDS011;70058;42.660;23.366;2023-05-17T10:40:47;15.88;;;5.85;;
80366;SDS011;70058;42.660;23.366;2023-05-17T10:43:18;19.08;;;7.22;;
80366;SDS011;70058;42.660;23.366;2023-05-17T10:45:45;19.52;;;7.47;;
80366;SDS011;70058;42.660;23.366;2023-05-17T10:48:13;20.67;;;7.18;;
80366;SDS011;70058;42.660;23.366;2023-05-17T10:50:39;17.90;;;6.13;;
80366;SDS011;70058;42.660;23.366;2023-05-17T10:53:07;16.45;;;5.95;;
80366;SDS011;70058;42.660;23.366;2023-05-17T10:55:41;17.05;;;6.18;;
80366;SDS011;70058;42.660;23.366;2023-05-17T10:58:20;23.27;;;6.90;;
80366;SDS011;70058;42.660;23.366;2023-05-17T11:00:52;20.75;;;7.70;;
80366;SDS011;70058;42.660;23.366;2023-05-17T11:03:26;21.17;;;7.75;;
80366;SDS011;70058;42.660;23.366;2023-05-17T11:09:04;21.48;;;7.93;;
80366;SDS011;70058;42.660;23.366;2023-05-17T11:12:05;18.08;;;7.00;;
80366;SDS011;70058;42.660;23.366;2023-05-17T11:15:32;14.65;;;5.38;;
80366;SDS011;70058;42.660;23.366;2023-05-17T11:17:35;17.80;;;6.05;;
80366;SDS011;70058;42.660;23.366;2023-05-17T11:25:23;23.30;;;8.98;;
80366;SDS011;70058;42.660;23.366;2023-05-17T11:27:53;24.02;;;8.30;;
80366;SDS011;70058;42.660;23.366;2023-05-17T11:35:29;16.98;;;7.88;;
80366;SDS011;70058;42.660;23.366;2023-05-17T11:38:14;21.73;;;6.90;;
80366;SDS011;70058;42.660;23.366;2023-05-17T11:40:47;25.13;;;9.05;;
80366;SDS011;70058;42.660;23.366;2023-05-17T11:43:17;23.65;;;9.82;;
80366;SDS011;70058;42.660;23.366;2023-05-17T11:45:47;26.13;;;8.75;;
80366;SDS011;70058;42.660;23.366;2023-05-17T11:48:15;21.55;;;8.82;;
80366;SDS011;70058;42.660;23.366;2023-05-17T11:50:43;20.27;;;7.93;;
80366;SDS011;70058;42.660;23.366;2023-05-17T11:53:10;22.50;;;9.07;;
80366;SDS011;70058;42.660;23.366;2023-05-17T11:55:37;17.15;;;7.13;;
80366;SDS011;70058;42.660;23.366;2023-05-17T11:58:15;18.23;;;8.68;;
80366;SDS011;70058;42.660;23.366;2023-05-17T12:00:50;19.55;;;8.63;;
80366;SDS011;70058;42.660;23.366;2023-05-17T12:03:18;22.02;;;8.95;;
80366;SDS011;70058;42.660;23.366;2023-05-17T12:05:47;21.67;;;7.57;;
80366;SDS011;70058;42.660;23.366;2023-05-17T12:08:16;15.90;;;6.25;;
80366;SDS011;70058;42.660;23.366;2023-05-17T12:10:47;15.68;;;7.85;;
80366;SDS011;70058;42.660;23.366;2023-05-17T12:13:14;14.65;;;6.20;;
80366;SDS011;70058;42.660;23.366;2023-05-17T12:15:43;18.63;;;8.10;;
80366;SDS011;70058;42.660;23.366;2023-05-17T12:18:11;19.02;;;7.05;;
80366;SDS011;70058;42.660;23.366;2023-05-17T12:20:51;18.90;;;8.50;;
80366;SDS011;70058;42.660;23.366;2023-05-17T12:23:24;19.30;;;8.10;;
80366;SDS011;70058;42.660;23.366;2023-05-17T12:25:51;16.30;;;7.57;;
80366;SDS011;70058;42.660;23.366;2023-05-17T12:28:33;20.02;;;7.68;;
80366;SDS011;70058;42.660;23.366;2023-05-17T12:31:47;14.57;;;7.28;;
80366;SDS011;70058;42.660;23.366;2023-05-17T12:33:54;17.92;;;7.43;;
80366;SDS011;70058;42.660;23.366;2023-05-17T12:36:24;21.50;;;8.05;;
80366;SDS011;70058;42.660;23.366;2023-05-17T12:38:53;15.90;;;5.45;;
80366;SDS011;70058;42.660;23.366;2023-05-17T12:41:20;19.10;;;8.40;;
80366;SDS011;70058;42.660;23.366;2023-05-17T12:43:48;17.60;;;7.68;;
80366;SDS011;70058;42.660;23.366;2023-05-17T12:46:20;19.10;;;8.45;;
80366;SDS011;70058;42.660;23.366;2023-05-17T12:48:48;20.05;;;7.93;;
80366;SDS011;70058;42.660;23.366;2023-05-17T12:51:16;13.77;;;8.57;;
80366;SDS011;70058;42.660;23.366;2023-05-17T12:53:44;14.48;;;8.18;;
80366;SDS011;70058;42.660;23.366;2023-05-17T12:56:18;16.23;;;8.55;;
80366;SDS011;70058;42.660;23.366;2023-05-17T12:59:03;17.98;;;9.25;;
80366;SDS011;70058;42.660;23.366;2023-05-17T13:01:37;21.60;;;8.18;;
80366;SDS011;70058;42.660;23.366;2023-05-17T13:04:04;16.05;;;8.38;;
80366;SDS011;70058;42.660;23.366;2023-05-17T13:07:03;16.48;;;8.27;;
80366;SDS011;70058;42.660;23.366;2023-05-17T13:09:24;23.20;;;8.27;;
80366;SDS011;70058;42.660;23.366;2023-05-17T13:11:55;15.15;;;6.20;;
80366;SDS011;70058;42.660;23.366;2023-05-17T13:14:38;20.77;;;8.65;;
80366;SDS011;70058;42.660;23.366;2023-05-17T13:17:05;13.60;;;6.38;;
80366;SDS011;70058;42.660;23.366;2023-05-17T13:19:36;17.75;;;7.95;;
80366;SDS011;70058;42.660;23.366;2023-05-17T13:22:05;18.92;;;6.45;;
80366;SDS011;70058;42.660;23.366;2023-05-17T13:24:34;14.75;;;6.63;;
80366;SDS011;70058;42.660;23.366;2023-05-17T13:27:04;15.03;;;5.33;;
80366;SDS011;70058;42.660;23.366;2023-05-17T13:29:31;17.85;;;8.48;;
80366;SDS011;70058;42.660;23.366;2023-05-17T13:31:58;16.38;;;7.75;;
80366;SDS011;70058;42.660;23.366;2023-05-17T13:34:24;15.70;;;6.75;;
80366;SDS011;70058;42.660;23.366;2023-05-17T13:36:49;14.27;;;7.05;;
80366;SDS011;70058;42.660;23.366;2023-05-17T13:39:15;15.25;;;7.25;;
80366;SDS011;70058;42.660;23.366;2023-05-17T13:41:41;17.70;;;6.57;;
80366;SDS011;70058;42.660;23.366;2023-05-17T13:44:08;14.20;;;6.90;;
80366;SDS011;70058;42.660;23.366;2023-05-17T13:46:34;16.35;;;6.57;;
80366;SDS011;70058;42.660;23.366;2023-05-17T13:49:00;21.52;;;6.53;;
80366;SDS011;70058;42.660;23.366;2023-05-17T13:51:31;16.45;;;6.80;;
80366;SDS011;70058;42.660;23.366;2023-05-17T13:53:58;14.00;;;6.05;;
80366;SDS011;70058;42.660;23.366;2023-05-17T13:56:25;9.95;;;3.78;;
80366;SDS011;70058;42.660;23.366;2023-05-17T13:58:51;13.35;;;5.05;;
80366;SDS011;70058;42.660;23.366;2023-05-17T14:01:17;9.45;;;4.25;;
80366;SDS011;70058;42.660;23.366;2023-05-17T14:03:45;16.85;;;5.40;;
80366;SDS011;70058;42.660;23.366;2023-05-17T14:06:11;14.48;;;5.88;;
80366;SDS011;70058;42.660;23.366;2023-05-17T14:08:37;12.13;;;5.22;;
80366;SDS011;70058;42.660;23.366;2023-05-17T14:11:03;13.18;;;4.90;;
80366;SDS011;70058;42.660;23.366;2023-05-17T14:13:30;12.38;;;4.28;;
80366;SDS011;70058;42.660;23.366;2023-05-17T14:15:55;15.75;;;4.93;;
80366;SDS011;70058;42.660;23.366;2023-05-17T14:18:21;14.45;;;5.32;;
80366;SDS011;70058;42.660;23.366;2023-05-17T14:20:47;11.20;;;5.35;;
80366;SDS011;70058;42.660;23.366;2023-05-17T14:23:13;11.38;;;5.07;;
80366;SDS011;70058;42.660;23.366;2023-05-17T14:25:39;12.90;;;4.72;;
80366;SDS011;70058;42.660;23.366;2023-05-17T14:28:08;15.02;;;4.65;;
80366;SDS011;70058;42.660;23.366;2023-05-17T14:30:34;12.88;;;5.18;;
80366;SDS011;70058;42.660;23.366;2023-05-17T14:33:00;12.10;;;5.13;;
80366;SDS011;70058;42.660;23.366;2023-05-17T14:35:26;13.48;;;5.25;;
80366;SDS011;70058;42.660;23.366;2023-05-17T14:37:59;12.32;;;5.43;;
80366;SDS011;70058;42.660;23.366;2023-05-17T14:40:25;11.07;;;5.05;;
80366;SDS011;70058;42.660;23.366;2023-05-17T14:42:51;11.98;;;4.90;;
80366;SDS011;70058;42.660;23.366;2023-05-17T14:45:16;14.73;;;4.22;;
80366;SDS011;70058;42.660;23.366;2023-05-17T14:47:43;9.45;;;4.30;;
80366;SDS011;70058;42.660;23.366;2023-05-17T14:50:09;12.15;;;4.60;;
80366;SDS011;70058;42.660;23.366;2023-05-17T14:52:35;15.73;;;5.30;;
80366;SDS011;70058;42.660;23.366;2023-05-17T14:55:00;15.38;;;5.05;;
80366;SDS011;70058;42.660;23.366;2023-05-17T14:57:31;13.27;;;4.25;;
80366;SDS011;70058;42.660;23.366;2023-05-17T14:59:57;16.23;;;6.63;;
80366;SDS011;70058;42.660;23.366;2023-05-17T15:02:24;15.38;;;7.45;;